sensor_id;sensor_type;location;lat;lon;timestamp;P1;durP1;ratioP1;P2;durP2;ratioP2
67696;SDS011;54486;51.442;6.778;2023-04-24T00:01:16;3.55;;;1.00;;
67696;SDS011;54486;51.442;6.778;2023-04-24T00:03:43;3.53;;;1.15;;
67696;SDS011;54486;51.442;6.778;2023-04-24T00:06:11;3.45;;;1.05;;
67696;SDS011;54486;51.442;6.778;2023-04-24T00:08:38;4.03;;;1.10;;
67696;SDS011;54486;51.442;6.778;2023-04-24T00:11:05;5.07;;;1.30;;
67696;SDS011;54486;51.442;6.778;2023-04-24T00:13:32;6.53;;;1.88;;
67696;SDS011;54486;51.442;6.778;2023-04-24T00:15:59;7.20;;;1.65;;
67696;SDS011;54486;51.442;6.778;2023-04-24T00:18:26;6.23;;;2.43;;
67696;SDS011;54486;51.442;6.778;2023-04-24T00:20:53;6.97;;;2.40;;
67696;SDS011;54486;51.442;6.778;2023-04-24T00:23:20;6.30;;;2.30;;
67696;SDS011;54486;51.442;6.778;2023-04-24T00:25:47;5.47;;;1.65;;
67696;SDS011;54486;51.442;6.778;2023-04-24T00:28:14;6.07;;;1.67;;
67696;SDS011;54486;51.442;6.778;2023-04-24T00:30:42;5.30;;;1.55;;
67696;SDS011;54486;51.442;6.778;2023-04-24T00:33:09;5.90;;;1.77;;
67696;SDS011;54486;51.442;6.778;2023-04-24T00:35:37;5.78;;;1.45;;
67696;SDS011;54486;51.442;6.778;2023-04-24T00:38:05;4.10;;;1.38;;
67696;SDS011;54486;51.442;6.778;2023-04-24T00:40:32;5.13;;;1.40;;
67696;SDS011;54486;51.442;6.778;2023-04-24T00:42:59;6.95;;;2.05;;
67696;SDS011;54486;51.442;6.778;2023-04-24T00:45:26;7.03;;;2.20;;
67696;SDS011;54486;51.442;6.778;2023-04-24T00:47:53;7.28;;;2.28;;
67696;SDS011;54486;51.442;6.778;2023-04-24T00:50:21;6.95;;;2.65;;
67696;SDS011;54486;51.442;6.778;2023-04-24T00:52:48;7.80;;;2.28;;
67696;SDS011;54486;51.442;6.778;2023-04-24T00:55:16;5.82;;;2.10;;
67696;SDS011;54486;51.442;6.778;2023-04-24T00:57:43;7.05;;;2.10;;
67696;SDS011;54486;51.442;6.778;2023-04-24T01:00:12;6.13;;;1.90;;
67696;SDS011;54486;51.442;6.778;2023-04-24T01:02:43;6.60;;;2.22;;
67696;SDS011;54486;51.442;6.778;2023-04-24T01:05:13;7.07;;;2.50;;
67696;SDS011;54486;51.442;6.778;2023-04-24T01:07:43;6.25;;;2.30;;
67696;SDS011;54486;51.442;6.778;2023-04-24T01:10:13;6.38;;;2.15;;
67696;SDS011;54486;51.442;6.778;2023-04-24T01:12:41;6.85;;;2.10;;
67696;SDS011;54486;51.442;6.778;2023-04-24T01:15:09;6.20;;;2.25;;
67696;SDS011;54486;51.442;6.778;2023-04-24T01:17:37;6.72;;;2.40;;
67696;SDS011;54486;51.442;6.778;2023-04-24T01:20:07;7.20;;;2.50;;
67696;SDS011;54486;51.442;6.778;2023-04-24T01:22:35;6.97;;;2.50;;
67696;SDS011;54486;51.442;6.778;2023-04-24T01:25:03;7.53;;;2.50;;
67696;SDS011;54486;51.442;6.778;2023-04-24T01:27:33;6.83;;;2.77;;
67696;SDS011;54486;51.442;6.778;2023-04-24T01:30:03;7.28;;;2.97;;
67696;SDS011;54486;51.442;6.778;2023-04-24T01:32:32;9.02;;;3.28;;
67696;SDS011;54486;51.442;6.778;2023-04-24T01:34:59;6.95;;;2.90;;
67696;SDS011;54486;51.442;6.778;2023-04-24T01:37:27;8.38;;;3.33;;
67696;SDS011;54486;51.442;6.778;2023-04-24T01:39:55;7.73;;;3.10;;
67696;SDS011;54486;51.442;6.778;2023-04-24T01:42:22;8.70;;;3.33;;
67696;SDS011;54486;51.442;6.778;2023-04-24T01:44:50;7.38;;;3.00;;
67696;SDS011;54486;51.442;6.778;2023-04-24T01:47:17;8.30;;;2.63;;
67696;SDS011;54486;51.442;6.778;2023-04-24T01:49:44;7.50;;;3.07;;
67696;SDS011;54486;51.442;6.778;2023-04-24T01:52:12;8.40;;;2.85;;
67696;SDS011;54486;51.442;6.778;2023-04-24T01:54:39;8.10;;;3.30;;
67696;SDS011;54486;51.442;6.778;2023-04-24T01:57:07;8.53;;;3.33;;
67696;SDS011;54486;51.442;6.778;2023-04-24T01:59:35;7.63;;;3.10;;
67696;SDS011;54486;51.442;6.778;2023-04-24T02:02:03;8.77;;;3.25;;
67696;SDS011;54486;51.442;6.778;2023-04-24T02:04:30;7.85;;;2.80;;
67696;SDS011;54486;51.442;6.778;2023-04-24T02:06:57;8.55;;;3.47;;
67696;SDS011;54486;51.442;6.778;2023-04-24T02:09:25;9.13;;;3.60;;
67696;SDS011;54486;51.442;6.778;2023-04-24T02:11:53;9.13;;;3.63;;
67696;SDS011;54486;51.442;6.778;2023-04-24T02:14:20;8.25;;;3.10;;
67696;SDS011;54486;51.442;6.778;2023-04-24T02:16:47;10.10;;;3.88;;
67696;SDS011;54486;51.442;6.778;2023-04-24T02:19:14;9.57;;;3.70;;
67696;SDS011;54486;51.442;6.778;2023-04-24T02:21:41;9.98;;;3.95;;
67696;SDS011;54486;51.442;6.778;2023-04-24T02:24:08;9.67;;;3.90;;
67696;SDS011;54486;51.442;6.778;2023-04-24T02:26:35;9.07;;;4.00;;
67696;SDS011;54486;51.442;6.778;2023-04-24T02:29:03;12.23;;;4.25;;
67696;SDS011;54486;51.442;6.778;2023-04-24T02:31:31;9.98;;;3.95;;
67696;SDS011;54486;51.442;6.778;2023-04-24T02:33:58;9.13;;;3.80;;
67696;SDS011;54486;51.442;6.778;2023-04-24T02:36:26;9.68;;;4.25;;
67696;SDS011;54486;51.442;6.778;2023-04-24T02:38:53;10.75;;;4.22;;
67696;SDS011;54486;51.442;6.778;2023-04-24T02:41:22;10.45;;;4.20;;
67696;SDS011;54486;51.442;6.778;2023-04-24T02:43:49;11.40;;;4.25;;
67696;SDS011;54486;51.442;6.778;2023-04-24T02:46:16;11.65;;;4.68;;
67696;SDS011;54486;51.442;6.778;2023-04-24T02:48:43;11.20;;;4.63;;
67696;SDS011;54486;51.442;6.778;2023-04-24T02:51:10;10.02;;;4.68;;
67696;SDS011;54486;51.442;6.778;2023-04-24T02:53:37;12.63;;;5.05;;
67696;SDS011;54486;51.442;6.778;2023-04-24T02:56:04;12.52;;;4.82;;
67696;SDS011;54486;51.442;6.778;2023-04-24T02:58:31;11.52;;;4.68;;
67696;SDS011;54486;51.442;6.778;2023-04-24T03:00:59;12.02;;;5.03;;
67696;SDS011;54486;51.442;6.778;2023-04-24T03:03:26;11.00;;;5.05;;
67696;SDS011;54486;51.442;6.778;2023-04-24T03:05:54;12.70;;;5.10;;
67696;SDS011;54486;51.442;6.778;2023-04-24T03:08:23;11.93;;;5.40;;
67696;SDS011;54486;51.442;6.778;2023-04-24T03:10:51;12.18;;;5.35;;
67696;SDS011;54486;51.442;6.778;2023-04-24T03:13:19;13.02;;;5.50;;
67696;SDS011;54486;51.442;6.778;2023-04-24T03:15:46;15.40;;;5.97;;
67696;SDS011;54486;51.442;6.778;2023-04-24T03:18:13;11.75;;;5.30;;
67696;SDS011;54486;51.442;6.778;2023-04-24T03:20:41;12.60;;;5.93;;
67696;SDS011;54486;51.442;6.778;2023-04-24T03:23:09;13.20;;;5.40;;
67696;SDS011;54486;51.442;6.778;2023-04-24T03:25:36;12.50;;;5.60;;
67696;SDS011;54486;51.442;6.778;2023-04-24T03:28:03;13.13;;;5.13;;
67696;SDS011;54486;51.442;6.778;2023-04-24T03:30:31;13.95;;;5.65;;
67696;SDS011;54486;51.442;6.778;2023-04-24T03:32:58;14.52;;;6.07;;
67696;SDS011;54486;51.442;6.778;2023-04-24T03:35:26;13.30;;;5.67;;
67696;SDS011;54486;51.442;6.778;2023-04-24T03:37:53;11.73;;;6.03;;
67696;SDS011;54486;51.442;6.778;2023-04-24T03:40:20;13.15;;;5.85;;
67696;SDS011;54486;51.442;6.778;2023-04-24T03:42:47;11.95;;;5.93;;
67696;SDS011;54486;51.442;6.778;2023-04-24T03:45:16;12.20;;;5.30;;
67696;SDS011;54486;51.442;6.778;2023-04-24T03:47:43;12.70;;;5.63;;
67696;SDS011;54486;51.442;6.778;2023-04-24T03:50:10;13.63;;;5.80;;
67696;SDS011;54486;51.442;6.778;2023-04-24T03:52:38;13.23;;;5.65;;
67696;SDS011;54486;51.442;6.778;2023-04-24T03:55:06;13.50;;;5.47;;
67696;SDS011;54486;51.442;6.778;2023-04-24T03:57:33;11.90;;;5.40;;
67696;SDS011;54486;51.442;6.778;2023-04-24T04:00:01;12.40;;;5.10;;
67696;SDS011;54486;51.442;6.778;2023-04-24T04:02:28;11.95;;;5.68;;
67696;SDS011;54486;51.442;6.778;2023-04-24T04:04:56;12.00;;;5.20;;
67696;SDS011;54486;51.442;6.778;2023-04-24T04:07:23;12.43;;;5.15;;
67696;SDS011;54486;51.442;6.778;2023-04-24T04:09:51;13.07;;;5.40;;
67696;SDS011;54486;51.442;6.778;2023-04-24T04:12:18;12.23;;;5.70;;
67696;SDS011;54486;51.442;6.778;2023-04-24T04:14:45;11.48;;;5.60;;
67696;SDS011;54486;51.442;6.778;2023-04-24T04:17:12;11.68;;;6.25;;
67696;SDS011;54486;51.442;6.778;2023-04-24T04:19:40;13.45;;;6.65;;
67696;SDS011;54486;51.442;6.778;2023-04-24T04:22:07;13.82;;;6.25;;
67696;SDS011;54486;51.442;6.778;2023-04-24T04:24:35;12.80;;;6.35;;
67696;SDS011;54486;51.442;6.778;2023-04-24T04:27:04;16.20;;;6.60;;
67696;SDS011;54486;51.442;6.778;2023-04-24T04:29:32;13.00;;;6.22;;
67696;SDS011;54486;51.442;6.778;2023-04-24T04:31:59;13.45;;;6.03;;
67696;SDS011;54486;51.442;6.778;2023-04-24T04:34:26;12.40;;;5.53;;
67696;SDS011;54486;51.442;6.778;2023-04-24T04:36:52;11.33;;;4.93;;
67696;SDS011;54486;51.442;6.778;2023-04-24T04:39:19;12.65;;;5.55;;
67696;SDS011;54486;51.442;6.778;2023-04-24T04:41:47;11.82;;;5.93;;
67696;SDS011;54486;51.442;6.778;2023-04-24T04:44:15;13.40;;;6.30;;
67696;SDS011;54486;51.442;6.778;2023-04-24T04:46:43;13.00;;;5.93;;
67696;SDS011;54486;51.442;6.778;2023-04-24T04:49:10;15.45;;;5.80;;
67696;SDS011;54486;51.442;6.778;2023-04-24T04:51:38;11.33;;;5.17;;
67696;SDS011;54486;51.442;6.778;2023-04-24T04:54:08;11.60;;;5.47;;
67696;SDS011;54486;51.442;6.778;2023-04-24T04:56:35;11.33;;;4.87;;
67696;SDS011;54486;51.442;6.778;2023-04-24T04:59:02;13.13;;;5.07;;
67696;SDS011;54486;51.442;6.778;2023-04-24T05:01:29;12.85;;;5.40;;
67696;SDS011;54486;51.442;6.778;2023-04-24T05:03:57;11.63;;;5.07;;
67696;SDS011;54486;51.442;6.778;2023-04-24T05:06:24;12.45;;;5.15;;
67696;SDS011;54486;51.442;6.778;2023-04-24T05:08:52;10.57;;;4.93;;
67696;SDS011;54486;51.442;6.778;2023-04-24T05:11:23;11.15;;;4.80;;
67696;SDS011;54486;51.442;6.778;2023-04-24T05:13:51;10.68;;;4.50;;
67696;SDS011;54486;51.442;6.778;2023-04-24T05:16:18;11.83;;;5.23;;
67696;SDS011;54486;51.442;6.778;2023-04-24T05:18:45;9.85;;;4.47;;
67696;SDS011;54486;51.442;6.778;2023-04-24T05:21:12;9.93;;;4.07;;
67696;SDS011;54486;51.442;6.778;2023-04-24T05:23:39;9.93;;;4.70;;
67696;SDS011;54486;51.442;6.778;2023-04-24T05:26:07;10.27;;;4.60;;
67696;SDS011;54486;51.442;6.778;2023-04-24T05:28:34;12.30;;;5.50;;
67696;SDS011;54486;51.442;6.778;2023-04-24T05:31:03;11.35;;;5.50;;
67696;SDS011;54486;51.442;6.778;2023-04-24T05:33:30;11.32;;;5.18;;
67696;SDS011;54486;51.442;6.778;2023-04-24T05:35:57;10.15;;;4.97;;
67696;SDS011;54486;51.442;6.778;2023-04-24T05:38:24;11.87;;;5.20;;
67696;SDS011;54486;51.442;6.778;2023-04-24T05:40:51;11.45;;;5.32;;
67696;SDS011;54486;51.442;6.778;2023-04-24T05:43:19;13.90;;;6.05;;
67696;SDS011;54486;51.442;6.778;2023-04-24T05:45:46;13.68;;;5.90;;
67696;SDS011;54486;51.442;6.778;2023-04-24T05:48:13;12.02;;;5.00;;
67696;SDS011;54486;51.442;6.778;2023-04-24T05:50:40;12.05;;;5.18;;
67696;SDS011;54486;51.442;6.778;2023-04-24T05:53:07;11.10;;;4.93;;
67696;SDS011;54486;51.442;6.778;2023-04-24T05:55:37;11.23;;;5.35;;
67696;SDS011;54486;51.442;6.778;2023-04-24T05:58:03;11.43;;;5.40;;
67696;SDS011;54486;51.442;6.778;2023-04-24T06:00:31;12.05;;;5.30;;
67696;SDS011;54486;51.442;6.778;2023-04-24T06:03:00;15.33;;;5.30;;
67696;SDS011;54486;51.442;6.778;2023-04-24T06:05:27;11.70;;;5.22;;
67696;SDS011;54486;51.442;6.778;2023-04-24T06:07:55;11.02;;;4.75;;
67696;SDS011;54486;51.442;6.778;2023-04-24T06:10:23;11.02;;;4.65;;
67696;SDS011;54486;51.442;6.778;2023-04-24T06:12:50;10.30;;;4.77;;
67696;SDS011;54486;51.442;6.778;2023-04-24T06:15:17;10.10;;;4.65;;
67696;SDS011;54486;51.442;6.778;2023-04-24T06:17:45;11.20;;;4.83;;
67696;SDS011;54486;51.442;6.778;2023-04-24T06:20:13;11.82;;;4.93;;
67696;SDS011;54486;51.442;6.778;2023-04-24T06:22:40;12.18;;;5.28;;
67696;SDS011;54486;51.442;6.778;2023-04-24T06:25:07;11.63;;;5.28;;
67696;SDS011;54486;51.442;6.778;2023-04-24T06:27:35;11.77;;;5.25;;
67696;SDS011;54486;51.442;6.778;2023-04-24T06:30:03;12.67;;;5.60;;
67696;SDS011;54486;51.442;6.778;2023-04-24T06:32:30;11.20;;;5.03;;
67696;SDS011;54486;51.442;6.778;2023-04-24T06:34:58;11.40;;;5.15;;
67696;SDS011;54486;51.442;6.778;2023-04-24T06:37:24;11.48;;;5.20;;
67696;SDS011;54486;51.442;6.778;2023-04-24T06:39:52;11.73;;;4.50;;
67696;SDS011;54486;51.442;6.778;2023-04-24T06:42:19;11.88;;;4.95;;
67696;SDS011;54486;51.442;6.778;2023-04-24T06:44:48;11.13;;;4.50;;
67696;SDS011;54486;51.442;6.778;2023-04-24T06:47:15;11.38;;;4.20;;
67696;SDS011;54486;51.442;6.778;2023-04-24T06:49:42;14.95;;;5.57;;
67696;SDS011;54486;51.442;6.778;2023-04-24T06:52:10;12.55;;;4.82;;
67696;SDS011;54486;51.442;6.778;2023-04-24T06:54:37;10.43;;;4.20;;
67696;SDS011;54486;51.442;6.778;2023-04-24T06:57:05;9.00;;;3.47;;
67696;SDS011;54486;51.442;6.778;2023-04-24T06:59:32;8.37;;;3.13;;
67696;SDS011;54486;51.442;6.778;2023-04-24T07:02:00;8.13;;;3.55;;
67696;SDS011;54486;51.442;6.778;2023-04-24T07:04:27;8.27;;;3.17;;
67696;SDS011;54486;51.442;6.778;2023-04-24T07:06:55;7.50;;;2.92;;
67696;SDS011;54486;51.442;6.778;2023-04-24T07:09:23;7.37;;;2.90;;
67696;SDS011;54486;51.442;6.778;2023-04-24T07:11:52;8.82;;;3.17;;
67696;SDS011;54486;51.442;6.778;2023-04-24T07:14:20;7.80;;;2.53;;
67696;SDS011;54486;51.442;6.778;2023-04-24T07:16:47;7.80;;;2.22;;
67696;SDS011;54486;51.442;6.778;2023-04-24T07:19:20;8.38;;;2.80;;
67696;SDS011;54486;51.442;6.778;2023-04-24T07:21:48;7.57;;;2.35;;
67696;SDS011;54486;51.442;6.778;2023-04-24T07:24:16;7.03;;;2.47;;
67696;SDS011;54486;51.442;6.778;2023-04-24T07:26:45;7.80;;;2.67;;
67696;SDS011;54486;51.442;6.778;2023-04-24T07:29:14;7.72;;;2.30;;
67696;SDS011;54486;51.442;6.778;2023-04-24T07:31:41;6.18;;;1.95;;
67696;SDS011;54486;51.442;6.778;2023-04-24T07:34:09;9.30;;;2.70;;
67696;SDS011;54486;51.442;6.778;2023-04-24T07:36:37;6.53;;;2.08;;
67696;SDS011;54486;51.442;6.778;2023-04-24T07:39:05;7.20;;;2.08;;
67696;SDS011;54486;51.442;6.778;2023-04-24T07:41:32;6.03;;;1.83;;
67696;SDS011;54486;51.442;6.778;2023-04-24T07:44:00;7.32;;;2.08;;
67696;SDS011;54486;51.442;6.778;2023-04-24T07:46:27;5.53;;;2.10;;
67696;SDS011;54486;51.442;6.778;2023-04-24T07:48:57;6.80;;;2.03;;
67696;SDS011;54486;51.442;6.778;2023-04-24T07:51:39;5.30;;;1.50;;
67696;SDS011;54486;51.442;6.778;2023-04-24T07:54:06;6.63;;;1.63;;
67696;SDS011;54486;51.442;6.778;2023-04-24T07:56:34;6.53;;;1.90;;
67696;SDS011;54486;51.442;6.778;2023-04-24T07:59:02;5.68;;;1.90;;
67696;SDS011;54486;51.442;6.778;2023-04-24T08:01:30;6.18;;;1.80;;
67696;SDS011;54486;51.442;6.778;2023-04-24T08:03:57;5.82;;;1.67;;
67696;SDS011;54486;51.442;6.778;2023-04-24T08:06:24;6.75;;;2.25;;
67696;SDS011;54486;51.442;6.778;2023-04-24T08:08:56;6.90;;;2.10;;
67696;SDS011;54486;51.442;6.778;2023-04-24T08:11:25;5.80;;;1.80;;
67696;SDS011;54486;51.442;6.778;2023-04-24T08:13:52;6.82;;;2.50;;
67696;SDS011;54486;51.442;6.778;2023-04-24T08:16:21;6.22;;;2.00;;
67696;SDS011;54486;51.442;6.778;2023-04-24T08:18:51;9.37;;;2.77;;
67696;SDS011;54486;51.442;6.778;2023-04-24T08:21:20;6.53;;;2.05;;
67696;SDS011;54486;51.442;6.778;2023-04-24T08:23:48;5.87;;;1.90;;
67696;SDS011;54486;51.442;6.778;2023-04-24T08:26:14;5.32;;;1.83;;
67696;SDS011;54486;51.442;6.778;2023-04-24T08:28:42;5.77;;;1.70;;
67696;SDS011;54486;51.442;6.778;2023-04-24T08:31:09;7.00;;;1.60;;
67696;SDS011;54486;51.442;6.778;2023-04-24T08:33:37;3.73;;;1.10;;
67696;SDS011;54486;51.442;6.778;2023-04-24T08:36:05;5.38;;;1.60;;
67696;SDS011;54486;51.442;6.778;2023-04-24T08:38:33;4.80;;;1.50;;
67696;SDS011;54486;51.442;6.778;2023-04-24T08:41:00;4.30;;;1.50;;
67696;SDS011;54486;51.442;6.778;2023-04-24T08:43:28;5.40;;;1.23;;
67696;SDS011;54486;51.442;6.778;2023-04-24T08:45:56;3.65;;;1.10;;
67696;SDS011;54486;51.442;6.778;2023-04-24T08:48:23;3.45;;;1.13;;
67696;SDS011;54486;51.442;6.778;2023-04-24T08:50:57;5.15;;;1.40;;
67696;SDS011;54486;51.442;6.778;2023-04-24T08:53:26;4.45;;;1.30;;
67696;SDS011;54486;51.442;6.778;2023-04-24T08:55:54;4.07;;;1.20;;
67696;SDS011;54486;51.442;6.778;2023-04-24T08:58:26;4.05;;;1.20;;
67696;SDS011;54486;51.442;6.778;2023-04-24T09:00:54;4.40;;;1.13;;
67696;SDS011;54486;51.442;6.778;2023-04-24T09:03:23;4.50;;;1.27;;
67696;SDS011;54486;51.442;6.778;2023-04-24T09:05:51;5.82;;;1.77;;
67696;SDS011;54486;51.442;6.778;2023-04-24T09:08:21;6.53;;;2.10;;
67696;SDS011;54486;51.442;6.778;2023-04-24T09:10:51;7.68;;;2.75;;
67696;SDS011;54486;51.442;6.778;2023-04-24T09:13:18;7.18;;;2.50;;
67696;SDS011;54486;51.442;6.778;2023-04-24T09:15:46;9.23;;;3.38;;
67696;SDS011;54486;51.442;6.778;2023-04-24T09:18:15;9.15;;;3.80;;
67696;SDS011;54486;51.442;6.778;2023-04-24T09:20:57;8.43;;;3.28;;
67696;SDS011;54486;51.442;6.778;2023-04-24T09:23:28;9.13;;;3.58;;
67696;SDS011;54486;51.442;6.778;2023-04-24T09:25:57;8.50;;;3.17;;
67696;SDS011;54486;51.442;6.778;2023-04-24T09:28:35;7.77;;;2.80;;
67696;SDS011;54486;51.442;6.778;2023-04-24T09:31:04;7.57;;;3.20;;
67696;SDS011;54486;51.442;6.778;2023-04-24T09:33:58;8.75;;;3.95;;
67696;SDS011;54486;51.442;6.778;2023-04-24T09:36:30;8.00;;;3.08;;
67696;SDS011;54486;51.442;6.778;2023-04-24T09:39:01;7.07;;;2.50;;
67696;SDS011;54486;51.442;6.778;2023-04-24T09:41:28;8.70;;;3.00;;
67696;SDS011;54486;51.442;6.778;2023-04-24T09:43:57;8.02;;;3.00;;
67696;SDS011;54486;51.442;6.778;2023-04-24T09:46:38;8.00;;;3.33;;
67696;SDS011;54486;51.442;6.778;2023-04-24T09:49:13;8.10;;;2.90;;
67696;SDS011;54486;51.442;6.778;2023-04-24T09:51:43;8.05;;;3.13;;
67696;SDS011;54486;51.442;6.778;2023-04-24T09:54:14;7.57;;;3.40;;
67696;SDS011;54486;51.442;6.778;2023-04-24T09:56:43;8.90;;;3.60;;
67696;SDS011;54486;51.442;6.778;2023-04-24T09:59:13;9.60;;;3.30;;
67696;SDS011;54486;51.442;6.778;2023-04-24T10:01:41;9.02;;;3.60;;
67696;SDS011;54486;51.442;6.778;2023-04-24T10:06:52;10.03;;;3.73;;
67696;SDS011;54486;51.442;6.778;2023-04-24T10:09:24;8.77;;;3.10;;
67696;SDS011;54486;51.442;6.778;2023-04-24T10:11:53;8.60;;;3.10;;
67696;SDS011;54486;51.442;6.778;2023-04-24T10:14:22;10.40;;;3.10;;
67696;SDS011;54486;51.442;6.778;2023-04-24T10:16:55;8.68;;;3.35;;
67696;SDS011;54486;51.442;6.778;2023-04-24T10:19:25;10.70;;;2.72;;
67696;SDS011;54486;51.442;6.778;2023-04-24T10:21:53;8.85;;;2.78;;
67696;SDS011;54486;51.442;6.778;2023-04-24T10:24:22;8.10;;;2.97;;
67696;SDS011;54486;51.442;6.778;2023-04-24T10:26:50;8.73;;;2.45;;
67696;SDS011;54486;51.442;6.778;2023-04-24T10:29:19;8.55;;;2.67;;
67696;SDS011;54486;51.442;6.778;2023-04-24T10:31:48;8.40;;;2.83;;
67696;SDS011;54486;51.442;6.778;2023-04-24T10:34:15;9.00;;;2.75;;
67696;SDS011;54486;51.442;6.778;2023-04-24T10:36:50;9.82;;;3.20;;
67696;SDS011;54486;51.442;6.778;2023-04-24T10:39:22;8.88;;;2.78;;
67696;SDS011;54486;51.442;6.778;2023-04-24T10:41:53;10.80;;;3.17;;
67696;SDS011;54486;51.442;6.778;2023-04-24T10:44:24;9.98;;;3.25;;
67696;SDS011;54486;51.442;6.778;2023-04-24T10:46:54;8.35;;;2.85;;
67696;SDS011;54486;51.442;6.778;2023-04-24T10:49:29;8.55;;;2.95;;
67696;SDS011;54486;51.442;6.778;2023-04-24T10:52:02;10.93;;;2.73;;
67696;SDS011;54486;51.442;6.778;2023-04-24T10:54:44;10.57;;;2.65;;
67696;SDS011;54486;51.442;6.778;2023-04-24T10:59:49;7.75;;;2.45;;
67696;SDS011;54486;51.442;6.778;2023-04-24T11:02:19;10.20;;;2.50;;
67696;SDS011;54486;51.442;6.778;2023-04-24T11:05:03;7.57;;;2.80;;
67696;SDS011;54486;51.442;6.778;2023-04-24T11:16:43;8.95;;;2.72;;
67696;SDS011;54486;51.442;6.778;2023-04-24T11:19:25;9.02;;;2.97;;
67696;SDS011;54486;51.442;6.778;2023-04-24T11:22:03;8.48;;;2.85;;
67696;SDS011;54486;51.442;6.778;2023-04-24T11:27:05;8.35;;;2.90;;
67696;SDS011;54486;51.442;6.778;2023-04-24T11:34:47;7.63;;;2.75;;
67696;SDS011;54486;51.442;6.778;2023-04-24T11:37:15;7.22;;;2.40;;
67696;SDS011;54486;51.442;6.778;2023-04-24T11:39:43;7.13;;;2.08;;
67696;SDS011;54486;51.442;6.778;2023-04-24T11:42:12;7.88;;;1.90;;
67696;SDS011;54486;51.442;6.778;2023-04-24T11:44:42;6.70;;;2.22;;
67696;SDS011;54486;51.442;6.778;2023-04-24T11:47:09;6.67;;;2.07;;
67696;SDS011;54486;51.442;6.778;2023-04-24T11:49:37;9.93;;;2.30;;
67696;SDS011;54486;51.442;6.778;2023-04-24T11:52:04;8.40;;;2.53;;
67696;SDS011;54486;51.442;6.778;2023-04-24T11:54:32;9.27;;;2.33;;
67696;SDS011;54486;51.442;6.778;2023-04-24T11:56:59;8.40;;;2.35;;
67696;SDS011;54486;51.442;6.778;2023-04-24T11:59:35;6.43;;;2.30;;
67696;SDS011;54486;51.442;6.778;2023-04-24T12:02:03;8.65;;;2.38;;
67696;SDS011;54486;51.442;6.778;2023-04-24T12:04:38;8.30;;;2.22;;
67696;SDS011;54486;51.442;6.778;2023-04-24T12:07:07;6.97;;;2.42;;
67696;SDS011;54486;51.442;6.778;2023-04-24T12:09:40;8.47;;;2.80;;
67696;SDS011;54486;51.442;6.778;2023-04-24T12:12:10;7.40;;;2.42;;
67696;SDS011;54486;51.442;6.778;2023-04-24T12:14:52;7.30;;;2.40;;
67696;SDS011;54486;51.442;6.778;2023-04-24T12:17:40;9.50;;;2.40;;
67696;SDS011;54486;51.442;6.778;2023-04-24T12:20:09;9.10;;;2.17;;
67696;SDS011;54486;51.442;6.778;2023-04-24T12:22:56;7.75;;;2.55;;
67696;SDS011;54486;51.442;6.778;2023-04-24T12:25:25;6.88;;;2.42;;
67696;SDS011;54486;51.442;6.778;2023-04-24T12:30:30;6.53;;;2.10;;
67696;SDS011;54486;51.442;6.778;2023-04-24T12:33:02;7.15;;;2.17;;
67696;SDS011;54486;51.442;6.778;2023-04-24T12:35:30;7.07;;;2.10;;
67696;SDS011;54486;51.442;6.778;2023-04-24T12:38:11;6.78;;;2.30;;
67696;SDS011;54486;51.442;6.778;2023-04-24T12:40:40;7.03;;;2.20;;
67696;SDS011;54486;51.442;6.778;2023-04-24T12:43:15;5.97;;;1.60;;
67696;SDS011;54486;51.442;6.778;2023-04-24T12:45:47;5.43;;;1.73;;
67696;SDS011;54486;51.442;6.778;2023-04-24T12:48:14;6.05;;;1.70;;
67696;SDS011;54486;51.442;6.778;2023-04-24T12:50:41;6.28;;;1.88;;
67696;SDS011;54486;51.442;6.778;2023-04-24T12:53:14;6.27;;;1.70;;
67696;SDS011;54486;51.442;6.778;2023-04-24T12:55:42;5.20;;;1.50;;
67696;SDS011;54486;51.442;6.778;2023-04-24T12:58:09;5.32;;;1.80;;
67696;SDS011;54486;51.442;6.778;2023-04-24T13:00:36;5.05;;;1.60;;
67696;SDS011;54486;51.442;6.778;2023-04-24T13:03:05;5.63;;;1.60;;
67696;SDS011;54486;51.442;6.778;2023-04-24T13:05:32;4.47;;;1.30;;
67696;SDS011;54486;51.442;6.778;2023-04-24T13:08:00;5.78;;;1.50;;
67696;SDS011;54486;51.442;6.778;2023-04-24T13:10:27;5.22;;;1.60;;
67696;SDS011;54486;51.442;6.778;2023-04-24T13:12:54;6.07;;;1.40;;
67696;SDS011;54486;51.442;6.778;2023-04-24T13:15:22;5.25;;;1.23;;
67696;SDS011;54486;51.442;6.778;2023-04-24T13:17:50;4.97;;;1.13;;
67696;SDS011;54486;51.442;6.778;2023-04-24T13:20:17;6.13;;;1.58;;
67696;SDS011;54486;51.442;6.778;2023-04-24T13:22:45;4.75;;;1.30;;
67696;SDS011;54486;51.442;6.778;2023-04-24T13:25:12;4.40;;;1.13;;
67696;SDS011;54486;51.442;6.778;2023-04-24T13:27:39;5.35;;;1.30;;
67696;SDS011;54486;51.442;6.778;2023-04-24T13:30:06;5.00;;;1.20;;
67696;SDS011;54486;51.442;6.778;2023-04-24T13:32:34;4.65;;;1.30;;
67696;SDS011;54486;51.442;6.778;2023-04-24T13:35:02;6.70;;;1.20;;
67696;SDS011;54486;51.442;6.778;2023-04-24T13:37:29;3.90;;;1.20;;
67696;SDS011;54486;51.442;6.778;2023-04-24T13:39:56;5.78;;;1.65;;
67696;SDS011;54486;51.442;6.778;2023-04-24T13:42:23;5.13;;;1.30;;
67696;SDS011;54486;51.442;6.778;2023-04-24T13:44:50;4.82;;;1.20;;
67696;SDS011;54486;51.442;6.778;2023-04-24T13:47:18;5.40;;;1.17;;
67696;SDS011;54486;51.442;6.778;2023-04-24T13:49:45;4.82;;;1.40;;
67696;SDS011;54486;51.442;6.778;2023-04-24T13:52:12;4.35;;;1.23;;
67696;SDS011;54486;51.442;6.778;2023-04-24T13:54:40;4.40;;;1.20;;
67696;SDS011;54486;51.442;6.778;2023-04-24T13:57:07;5.63;;;1.20;;
67696;SDS011;54486;51.442;6.778;2023-04-24T13:59:34;4.28;;;1.17;;
67696;SDS011;54486;51.442;6.778;2023-04-24T14:02:01;5.15;;;1.30;;
67696;SDS011;54486;51.442;6.778;2023-04-24T14:04:28;4.22;;;1.17;;
67696;SDS011;54486;51.442;6.778;2023-04-24T14:06:56;5.32;;;1.23;;
67696;SDS011;54486;51.442;6.778;2023-04-24T14:09:24;4.35;;;1.10;;
67696;SDS011;54486;51.442;6.778;2023-04-24T14:11:51;4.95;;;1.15;;
67696;SDS011;54486;51.442;6.778;2023-04-24T14:14:18;6.03;;;1.40;;
67696;SDS011;54486;51.442;6.778;2023-04-24T14:16:45;5.35;;;1.27;;
67696;SDS011;54486;51.442;6.778;2023-04-24T14:19:12;4.40;;;1.40;;
67696;SDS011;54486;51.442;6.778;2023-04-24T14:21:40;4.37;;;1.30;;
67696;SDS011;54486;51.442;6.778;2023-04-24T14:24:07;4.80;;;1.42;;
67696;SDS011;54486;51.442;6.778;2023-04-24T14:26:35;4.82;;;1.20;;
67696;SDS011;54486;51.442;6.778;2023-04-24T14:29:02;5.35;;;1.40;;
67696;SDS011;54486;51.442;6.778;2023-04-24T14:31:40;4.68;;;1.30;;
67696;SDS011;54486;51.442;6.778;2023-04-24T14:34:08;4.47;;;1.77;;
67696;SDS011;54486;51.442;6.778;2023-04-24T14:36:36;4.60;;;1.42;;
67696;SDS011;54486;51.442;6.778;2023-04-24T14:39:05;5.60;;;1.33;;
67696;SDS011;54486;51.442;6.778;2023-04-24T14:41:34;5.43;;;1.38;;
67696;SDS011;54486;51.442;6.778;2023-04-24T14:44:03;5.10;;;1.40;;
67696;SDS011;54486;51.442;6.778;2023-04-24T14:46:30;4.22;;;1.30;;
67696;SDS011;54486;51.442;6.778;2023-04-24T14:48:58;5.22;;;1.50;;
67696;SDS011;54486;51.442;6.778;2023-04-24T14:51:26;5.53;;;1.60;;
67696;SDS011;54486;51.442;6.778;2023-04-24T14:53:55;5.53;;;1.60;;
67696;SDS011;54486;51.442;6.778;2023-04-24T14:56:23;6.63;;;1.67;;
67696;SDS011;54486;51.442;6.778;2023-04-24T14:58:50;5.78;;;1.70;;
67696;SDS011;54486;51.442;6.778;2023-04-24T15:01:18;5.72;;;1.38;;
67696;SDS011;54486;51.442;6.778;2023-04-24T15:03:45;5.35;;;1.52;;
67696;SDS011;54486;51.442;6.778;2023-04-24T15:06:13;6.60;;;1.58;;
67696;SDS011;54486;51.442;6.778;2023-04-24T15:08:40;6.70;;;1.70;;
67696;SDS011;54486;51.442;6.778;2023-04-24T15:11:08;5.43;;;1.60;;
67696;SDS011;54486;51.442;6.778;2023-04-24T15:13:36;5.20;;;1.45;;
67696;SDS011;54486;51.442;6.778;2023-04-24T15:16:04;4.72;;;1.40;;